Terminal Aerodrome Forecast
Issued by NWS Knoxville/Tri Cities, TN

Home | Current Version | Previous Version | Text Only | Print | Product List | Glossary On
Versions: 1 2 3 4 5 6 7 8 9 10 11 12 13 14 15
000
FTUS44 KMRX 240523
TAFCHA
TAF
KCHA 240523Z 2406/2506 VRB03KT P6SM VCTS SCT045CB BKN100
      TEMPO 2406/2408 4SM TSRA BR BKN030CB
     FM240900 00000KT 6SM BR BKN250
     FM241300 VRB05KT P6SM SCT050 BKN150
     FM250100 VRB02KT P6SM FEW060 BKN250=

USA.gov is the U.S. government's official web portal to all federal, state and local government web resources and services.